Time;durP1;ratioP1;P1;durP2;ratioP2;P2;SDS_P1;SDS_P2;PMS_P1;PMS_P2;Temp;Humidity;BMP_temperature;BMP_pressure;BME280_temperature;BME280_humidity;BME280_pressure;Samples;Min_cycle;Max_cycle;Signal;HPM_P1;HPM_P2
2021/09/24 05:47:33;;;;;;;;;10.50;9.00;;;;;16.97;70.91;101797.06;5713457;23;47447;-81
2021/09/24 05:49:58;;;;;;;;;10.25;9.75;;;;;16.97;71.03;101794.41;4958946;28;46495;-81
2021/09/24 05:52:23;;;;;;;;;8.75;8.25;;;;;17.00;70.69;101794.28;4958785;28;45513;-81
2021/09/24 05:54:49;;;;;;;;;10.50;7.00;;;;;16.97;70.86;101789.09;4962479;28;45442;-81
2021/09/24 05:57:14;;;;;;;;;10.50;9.00;;;;;16.97;70.93;101789.97;4959453;28;45479;-81
2021/09/24 05:59:40;;;;;;;;;14.50;9.50;;;;;16.99;70.73;101792.53;4958076;28;45520;-81
2021/09/24 06:02:05;;;;;;;;;10.50;10.50;;;;;16.99;70.90;101797.84;4959521;28;45792;-81
2021/09/24 06:04:30;;;;;;;;;9.75;9.75;;;;;16.99;70.82;101795.19;4961489;28;45569;-81
2021/09/24 06:06:56;;;;;;;;;9.75;9.25;;;;;17.05;70.78;101802.91;4961306;28;45221;-79
2021/09/24 06:09:21;;;;;;;;;13.50;9.50;;;;;16.99;71.10;101798.72;4961160;28;45273;-81
2021/09/24 06:11:47;;;;;;;;;9.50;9.25;;;;;17.06;70.56;101807.28;4961570;28;45335;-83
2021/09/24 06:14:12;;;;;;;;;15.75;11.50;;;;;17.09;70.90;101812.47;4960787;28;45479;-86
2021/09/24 06:16:38;;;;;;;;;13.50;11.75;;;;;17.09;70.69;101807.16;4960208;28;46705;-82
2021/09/24 06:19:04;;;;;;;;;17.50;14.25;;;;;17.10;70.81;101805.34;4961060;28;45300;-86
2021/09/24 06:21:30;;;;;;;;;13.75;13.00;;;;;17.10;70.35;101802.69;4961898;28;45314;-86
2021/09/24 06:23:56;;;;;;;;;20.50;14.00;;;;;17.12;70.25;101802.63;4961666;28;45594;-89
2021/09/24 06:26:21;;;;;;;;;14.50;14.25;;;;;17.13;70.60;101788.44;4961123;28;45462;-89
2021/09/24 06:28:47;;;;;;;;;16.50;15.50;;;;;17.13;70.38;101791.09;4961671;28;45444;-87
2021/09/24 06:31:12;;;;;;;;;19.00;14.75;;;;;17.15;70.70;101792.78;4946824;28;45511;-86
2021/09/24 06:33:37;;;;;;;;;15.00;12.00;;;;;17.13;70.66;101788.44;4950898;28;45384;-87
2021/09/24 06:36:03;;;;;;;;;16.75;13.00;;;;;17.14;70.68;101795.44;4943939;28;46939;-87
2021/09/24 06:38:29;;;;;;;;;22.00;20.00;;;;;17.16;70.37;101793.66;4961456;28;45684;-87
2021/09/24 06:40:55;;;;;;;;;18.75;16.50;;;;;17.19;70.30;101798.78;4961269;28;45420;-88
2021/09/24 06:43:21;;;;;;;;;18.00;15.25;;;;;17.24;70.68;101804.78;4955818;28;45495;-88
2021/09/24 06:45:46;;;;;;;;;21.25;18.50;;;;;17.24;70.62;101801.25;4961373;28;46077;-89
2021/09/24 06:48:11;;;;;;;;;21.25;18.75;;;;;17.24;70.81;101801.25;4962125;28;45372;-88
2021/09/24 06:50:37;;;;;;;;;22.00;19.00;;;;;17.27;70.31;101795.81;4968357;28;46821;-88
2021/09/24 06:53:04;;;;;;;;;18.00;13.50;;;;;17.34;70.39;101801.69;4969461;28;45315;-88
2021/09/24 06:55:29;;;;;;;;;22.25;18.00;;;;;17.34;70.58;101801.69;4960038;28;46266;-88
2021/09/24 06:57:56;;;;;;;;;21.00;20.00;;;;;17.32;70.43;101797.34;4961025;28;45455;-88
2021/09/24 07:00:22;;;;;;;;;18.00;15.50;;;;;17.35;70.13;101799.00;4972111;28;45464;-88
2021/09/24 07:02:48;;;;;;;;;26.00;19.75;;;;;17.41;70.39;101808.47;4964208;28;45398;-88
2021/09/24 07:05:14;;;;;;;;;15.00;13.75;;;;;17.41;69.87;101805.81;4967857;28;47424;-88
2021/09/24 07:07:41;;;;;;;;;25.00;15.25;;;;;17.40;69.86;101801.44;4943250;28;45480;-88
2021/09/24 07:10:07;;;;;;;;;20.50;17.25;;;;;17.44;70.21;101808.34;4960173;28;45549;-90
2021/09/24 07:12:33;;;;;;;;;24.00;20.50;;;;;17.44;70.44;101805.69;4943094;28;46760;-87
2021/09/24 07:14:58;;;;;;;;;17.00;17.00;;;;;17.50;70.18;101805.41;4959595;28;45512;-88
2021/09/24 07:17:24;;;;;;;;;20.25;19.00;;;;;17.49;69.99;101802.81;4968013;28;45354;-87
2021/09/24 07:19:49;;;;;;;;;26.25;19.25;;;;;17.53;69.95;101796.44;4963736;28;45360;-88
2021/09/24 07:22:16;;;;;;;;;25.00;20.25;;;;;17.57;69.83;101807.78;4964425;28;45705;-88
2021/09/24 07:24:41;;;;;;;;;20.50;17.25;;;;;17.59;70.10;101805.91;4959152;28;47285;-87
2021/09/24 07:27:06;;;;;;;;;22.00;19.50;;;;;17.63;70.04;101807.50;4959110;28;45437;-86
2021/09/24 07:29:32;;;;;;;;;21.25;19.75;;;;;17.66;70.12;101813.53;4943508;28;45319;-90
2021/09/24 07:31:58;;;;;;;;;20.25;15.25;;;;;17.68;69.70;101815.28;4959634;28;46000;-90
2021/09/24 07:34:24;;;;;;;;;17.25;16.00;;;;;17.64;69.58;101803.91;4960550;28;45448;-90
2021/09/24 07:36:49;;;;;;;;;18.25;14.25;;;;;17.59;69.86;101806.78;4961045;28;45433;-90
2021/09/24 07:39:14;;;;;;;;;16.25;14.00;;;;;17.57;69.81;101799.81;4961253;28;45464;-88
2021/09/24 07:41:40;;;;;;;;;20.25;16.75;;;;;17.52;69.85;101792.03;4960729;28;45433;-88
2021/09/24 07:44:05;;;;;;;;;20.75;16.00;;;;;17.53;70.09;101802.59;4960927;28;45348;-89
2021/09/24 07:46:32;;;;;;;;;24.00;21.50;;;;;17.47;69.83;101794.91;4960903;28;45182;-88
2021/09/24 07:48:59;;;;;;;;;24.75;18.75;;;;;17.47;70.27;101797.56;4960348;28;45167;-92
2021/09/24 07:51:26;;;;;;;;;22.00;19.25;;;;;17.50;70.38;101802.75;4959106;28;45453;-89
2021/09/24 07:53:51;;;;;;;;;20.00;18.50;;;;;17.50;70.00;101799.22;4960217;28;46385;-88
2021/09/24 07:56:17;;;;;;;;;19.00;15.75;;;;;17.51;70.20;101804.47;4960325;28;45485;-89
2021/09/24 07:58:42;;;;;;;;;23.50;18.75;;;;;17.47;70.29;101802.88;4954735;28;45525;-89
2021/09/24 08:01:08;;;;;;;;;25.50;21.00;;;;;17.51;69.85;101803.59;4957173;28;45952;-89
2021/09/24 08:03:35;;;;;;;;;28.75;20.75;;;;;17.53;70.35;101802.59;4959611;28;46553;-82
2021/09/24 08:06:01;;;;;;;;;22.25;18.00;;;;;17.56;70.37;101800.75;4959901;28;45352;-81
2021/09/24 08:08:26;;;;;;;;;14.75;12.00;;;;;17.58;69.24;101797.06;4942591;28;45270;-81
2021/09/24 08:10:52;;;;;;;;;11.00;10.50;;;;;17.62;69.43;101805.78;4959338;28;45448;-82
2021/09/24 08:13:17;;;;;;;;;13.25;10.50;;;;;17.72;69.36;101812.41;4941172;28;46147;-81
2021/09/24 08:15:43;;;;;;;;;12.75;12.25;;;;;17.75;69.26;101817.56;4960350;28;45451;-81
2021/09/24 08:18:11;;;;;;;;;9.50;9.50;;;;;17.88;68.77;101830.28;4959863;28;45233;-81
2021/09/24 08:20:36;;;;;;;;;22.75;19.75;;;;;17.94;68.88;101819.38;4960173;28;45618;-82
2021/09/24 08:23:02;;;;;;;;;17.75;15.00;;;;;18.01;68.14;101806.63;4960441;28;46046;-82
2021/09/24 08:25:27;;;;;;;;;11.75;10.50;;;;;18.10;67.60;101813.28;4960636;28;45416;-81
2021/09/24 08:27:53;;;;;;;;;12.25;10.25;;;;;18.20;67.74;101817.28;4958964;28;45528;-82
2021/09/24 08:30:22;;;;;;;;;15.75;11.75;;;;;18.30;67.44;101825.69;4960164;28;45346;-81
2021/09/24 08:32:47;;;;;;;;;19.25;17.00;;;;;18.39;67.59;101824.38;4942060;28;46797;-81
2021/09/24 08:35:14;;;;;;;;;11.50;11.50;;;;;18.51;67.56;101830.03;4958027;28;45424;-81
2021/09/24 08:37:42;;;;;;;;;21.00;12.75;;;;;18.57;66.90;101824.38;4955316;28;45172;-81
2021/09/24 08:40:09;;;;;;;;;13.25;11.25;;;;;18.62;66.65;101825.03;4960895;28;45305;-81
2021/09/24 08:42:39;;;;;;;;;16.00;12.75;;;;;18.67;66.21;101820.31;4960062;28;46361;-81
2021/09/24 08:45:20;;;;;;;;;15.25;13.25;;;;;18.69;65.94;101824.72;4959478;28;45406;-81
2021/09/24 08:47:46;;;;;;;;;18.25;14.50;;;;;18.72;66.15;101817.44;4943808;28;45484;-81
2021/09/24 08:50:11;;;;;;;;;15.50;14.50;;;;;18.78;66.12;101821.59;4939138;28;45582;-81
2021/09/24 08:52:38;;;;;;;;;17.75;16.00;;;;;18.81;66.40;101817.91;4942283;28;45741;-81
2021/09/24 08:55:06;;;;;;;;;12.75;11.50;;;;;18.88;65.86;101824.66;4940458;28;45624;-81
2021/09/24 08:57:32;;;;;;;;;23.75;19.75;;;;;18.88;66.75;101830.84;4939351;28;45467;-82
2021/09/24 08:59:57;;;;;;;;;13.00;10.00;;;;;18.90;65.25;101820.09;4939510;28;45399;-81
2021/09/24 09:02:23;;;;;;;;;15.50;13.00;;;;;18.91;65.25;101816.50;4940195;28;46427;-82
2021/09/24 09:04:48;;;;;;;;;14.00;12.25;;;;;18.93;65.28;101811.97;4939907;28;45547;-82
2021/09/24 09:07:16;;;;;;;;;13.25;13.25;;;;;19.00;65.03;101826.69;4939593;28;45424;-82
2021/09/24 09:09:44;;;;;;;;;16.00;14.25;;;;;19.00;64.97;101813.38;4935791;28;45580;-82
2021/09/24 09:12:11;;;;;;;;;14.00;10.75;;;;;19.08;64.77;101823.63;4936723;28;45337;-81
2021/09/24 09:14:36;;;;;;;;;16.00;15.25;;;;;19.14;65.27;101824.25;4942366;28;45475;-81
2021/09/24 09:17:35;;;;;;;;;14.00;10.50;;;;;19.18;64.61;101817.84;4941702;28;45457;-81
2021/09/24 09:20:19;;;;;;;;;15.00;13.50;;;;;19.27;65.12;101820.00;4943177;28;45460;-83
2021/09/24 09:22:49;;;;;;;;;14.75;11.75;;;;;19.28;64.49;101819.09;4943800;28;45439;-82
2021/09/24 09:25:42;;;;;;;;;12.75;12.75;;;;;19.30;64.27;101827.84;4944535;28;45533;-82
2021/09/24 09:28:12;;;;;;;;;10.50;10.50;;;;;19.34;64.14;101824.06;4940199;28;45415;-82
2021/09/24 09:30:38;;;;;;;;;15.75;13.25;;;;;19.38;64.07;101813.25;4942803;28;45531;-82
2021/09/24 09:33:17;;;;;;;;;13.00;12.00;;;;;19.42;64.11;101814.81;4942116;28;46271;-81
2021/09/24 09:35:45;;;;;;;;;19.50;13.75;;;;;19.44;64.77;101807.56;4943462;28;45423;-79
2021/09/24 09:38:19;;;;;;;;;13.50;12.50;;;;;19.55;65.04;101826.53;4943800;28;45285;-78
2021/09/24 09:40:46;;;;;;;;;12.00;12.00;;;;;19.54;64.50;101811.47;4940836;28;46030;-76
2021/09/24 09:43:30;;;;;;;;;14.75;12.75;;;;;19.62;64.32;101815.53;4941712;28;45439;-79
2021/09/24 09:45:56;;;;;;;;;20.00;18.25;;;;;19.63;64.54;101806.59;4946367;28;45542;-76
2021/09/24 09:48:21;;;;;;;;;13.25;12.00;;;;;19.62;64.13;101799.53;4951503;28;45414;-76
2021/09/24 09:50:47;;;;;;;;;12.00;10.50;;;;;19.66;63.87;101811.75;4962651;28;45424;-77
2021/09/24 09:53:15;;;;;;;;;13.00;9.75;;;;;19.65;63.44;101797.56;4962043;28;45573;-77
2021/09/24 09:55:48;;;;;;;;;13.50;12.25;;;;;19.68;63.05;101801.84;4958866;28;45657;-77
2021/09/24 09:58:14;;;;;;;;;11.25;11.00;;;;;19.71;62.86;101800.81;4959538;28;45464;-77
2021/09/24 10:01:14;;;;;;;;;18.50;13.00;;;;;19.72;63.66;101803.41;4960236;28;45433;-77
2021/09/24 10:03:49;;;;;;;;;11.25;10.25;;;;;19.71;62.69;101791.00;4959720;28;45319;-77
2021/09/24 10:06:26;;;;;;;;;9.25;8.25;;;;;19.73;62.58;101791.78;4962184;28;45459;-77
2021/09/24 10:08:56;;;;;;;;;14.25;12.00;;;;;19.76;63.37;101798.75;4961310;28;45436;-76
2021/09/24 10:11:33;;;;;;;;;15.00;12.00;;;;;19.77;63.65;101793.34;4956494;28;45469;-76
2021/09/24 10:14:10;;;;;;;;;19.00;13.75;;;;;19.82;63.60;101793.09;4960643;28;45399;-78
2021/09/24 10:16:46;;;;;;;;;9.00;6.00;;;;;19.85;62.16;101795.56;4962079;28;45737;-75
2021/09/24 10:19:14;;;;;;;;;14.50;11.25;;;;;19.73;62.11;101791.78;4961722;28;45275;-74
2021/09/24 10:21:40;;;;;;;;;15.75;13.50;;;;;19.74;62.95;101798.84;4961438;28;45525;-78
2021/09/24 10:24:06;;;;;;;;;13.50;12.50;;;;;19.69;63.01;101787.56;4961246;28;46632;-78
2021/09/24 10:26:36;;;;;;;;;17.25;16.00;;;;;19.73;63.37;101801.63;4960808;28;46095;-80
2021/09/24 10:29:14;;;;;;;;;18.50;13.75;;;;;19.76;63.24;101793.44;4961363;28;45488;-80
2021/09/24 10:31:47;;;;;;;;;8.00;7.25;;;;;19.81;62.46;101788.69;4944138;28;46335;-80
2021/09/24 10:34:14;;;;;;;;;18.50;15.75;;;;;19.84;62.49;101790.34;4960225;28;45518;-80
2021/09/24 10:36:56;;;;;;;;;17.75;17.00;;;;;19.88;62.50;101784.75;4961433;28;45369;-80
2021/09/24 10:39:30;;;;;;;;;16.75;14.75;;;;;19.97;63.14;101790.50;4960540;28;45534;-80
2021/09/24 10:42:15;;;;;;;;;13.50;13.25;;;;;19.99;63.12;101794.81;4965432;28;45515;-80
2021/09/24 10:45:12;;;;;;;;;15.75;12.25;;;;;19.97;62.21;101791.38;4961074;28;45445;-80
2021/09/24 10:47:50;;;;;;;;;12.00;8.75;;;;;20.00;61.83;101787.69;4926916;28;45716;-79
2021/09/24 10:50:31;;;;;;;;;;;;;;;20.05;62.30;101790.09;4963869;28;45210;-80
2021/09/24 10:53:17;;;;;;;;;15.25;12.75;;;;;20.07;62.13;101788.19;4961246;28;45556;-82
2021/09/24 10:55:48;;;;;;;;;12.25;11.25;;;;;-150.52;100.00;63513.88;4961683;28;46289;-80
2021/09/24 10:58:16;;;;;;;;;18.75;15.00;;;;;-150.52;100.00;63513.88;4962034;28;46048;-79
2021/09/24 11:00:47;;;;;;;;;15.75;12.25;;;;;-150.52;100.00;63513.88;4972827;28;45431;-80
2021/09/24 11:03:16;;;;;;;;;17.00;13.00;;;;;-150.52;100.00;63513.88;4943256;28;45364;-80
2021/09/24 11:05:57;;;;;;;;;16.25;15.50;;;;;-150.52;100.00;63513.88;4961287;28;45408;-79
2021/09/24 11:08:28;;;;;;;;;16.75;12.75;;;;;-150.52;100.00;63513.88;4961478;28;45246;-79
2021/09/24 11:11:21;;;;;;;;;19.25;16.00;;;;;-150.52;100.00;63513.88;4960017;28;45426;-79
2021/09/24 11:13:55;;;;;;;;;18.00;14.75;;;;;-150.52;100.00;63513.88;4959891;28;45488;-79
2021/09/24 11:16:23;;;;;;;;;16.75;13.75;;;;;-150.52;100.00;63513.88;4959525;28;46552;-79
2021/09/24 11:19:00;;;;;;;;;17.75;15.00;;;;;-150.52;100.00;63513.88;4960539;28;45539;-79
2021/09/24 11:21:48;;;;;;;;;18.00;16.25;;;;;-150.52;100.00;63513.88;4961111;28;45286;-79
2021/09/24 11:24:48;;;;;;;;;18.50;16.00;;;;;-150.52;100.00;63513.88;4959325;28;45533;-79
2021/09/24 11:27:30;;;;;;;;;15.25;13.00;;;;;-150.52;100.00;63513.88;4922105;28;46799;-79
2021/09/24 11:30:02;;;;;;;;;14.75;13.25;;;;;-150.52;100.00;63513.88;4942028;28;45820;-79
2021/09/24 11:32:55;;;;;;;;;13.75;11.25;;;;;-150.52;100.00;63513.88;4960019;28;45452;-79
2021/09/24 11:35:28;;;;;;;;;16.50;14.75;;;;;-150.52;100.00;63513.88;4956017;28;47789;-79
2021/09/24 11:38:04;;;;;;;;;15.00;12.50;;;;;-150.52;100.00;63513.88;4961065;28;45401;-79
2021/09/24 11:40:31;;;;;;;;;16.00;13.00;;;;;-150.52;100.00;63513.88;4960980;28;45728;-79
2021/09/24 11:42:59;;;;;;;;;10.50;7.75;;;;;-150.52;100.00;63513.88;4943489;28;45201;-80
2021/09/24 11:45:26;;;;;;;;;14.50;14.25;;;;;-150.52;100.00;63513.88;4960027;28;45447;-80
2021/09/24 11:48:09;;;;;;;;;15.75;13.75;;;;;-150.52;100.00;63513.88;4960339;28;45852;-79
2021/09/24 11:50:36;;;;;;;;;16.25;11.25;;;;;-150.52;100.00;63513.88;4960589;28;45215;-79
2021/09/24 11:53:08;;;;;;;;;16.00;14.25;;;;;-150.52;100.00;63513.88;4959645;28;45268;-79
2021/09/24 11:55:45;;;;;;;;;18.25;15.50;;;;;-150.52;100.00;63513.88;4960851;28;45352;-79
2021/09/24 11:58:14;;;;;;;;;16.75;15.25;;;;;-150.52;100.00;63513.88;4960545;28;45425;-79
2021/09/24 12:00:45;;;;;;;;;14.00;12.25;;;;;-150.52;100.00;63513.88;4958415;28;45468;-79
2021/09/24 12:03:22;;;;;;;;;16.00;14.00;;;;;-150.52;100.00;63513.88;4959564;28;45520;-79
2021/09/24 12:06:08;;;;;;;;;13.50;11.75;;;;;-150.52;100.00;63513.88;4960347;28;45382;-79
2021/09/24 12:08:40;;;;;;;;;16.50;15.00;;;;;-150.52;100.00;63513.88;4960772;28;46226;-79
2021/09/24 12:11:05;;;;;;;;;16.25;14.75;;;;;-150.52;100.00;63513.88;4960385;28;45233;-79
2021/09/24 12:13:41;;;;;;;;;13.00;11.75;;;;;-150.52;100.00;63513.88;4958798;28;45475;-79
2021/09/24 12:16:08;;;;;;;;;11.25;10.00;;;;;-150.52;100.00;63513.88;4959032;28;46269;-79
2021/09/24 12:18:49;;;;;;;;;11.25;9.50;;;;;-150.52;100.00;63513.88;4959654;28;46279;-79
2021/09/24 12:21:18;;;;;;;;;14.50;11.50;;;;;-150.52;100.00;63513.88;4959912;28;45810;-79
2021/09/24 12:23:44;;;;;;;;;12.00;12.00;;;;;-150.52;100.00;63513.88;4942154;28;45437;-79
2021/09/24 12:26:10;;;;;;;;;13.25;9.00;;;;;-150.52;100.00;63513.88;4960223;28;45462;-80
2021/09/24 12:28:37;;;;;;;;;10.75;10.00;;;;;-150.52;100.00;63513.88;4942389;28;47147;-80
2021/09/24 12:31:03;;;;;;;;;12.75;12.25;;;;;-150.52;100.00;63513.88;4959528;28;45515;-79
2021/09/24 12:33:29;;;;;;;;;12.75;9.50;;;;;-150.52;100.00;63513.88;4942465;28;45281;-79
2021/09/24 12:36:02;;;;;;;;;9.25;8.50;;;;;-150.52;100.00;63513.88;4958776;28;46243;-80
2021/09/24 12:38:33;;;;;;;;;15.50;13.75;;;;;-150.52;100.00;63513.88;4960382;28;46707;-80
2021/09/24 12:41:14;;;;;;;;;13.50;11.50;;;;;-150.52;100.00;63513.88;4959286;28;45754;-80
2021/09/24 12:43:41;;;;;;;;;11.50;10.50;;;;;-150.52;100.00;63513.88;4959899;28;45267;-80
2021/09/24 12:46:07;;;;;;;;;13.00;12.00;;;;;-150.52;100.00;63513.88;4959553;28;45472;-79
2021/09/24 12:48:41;;;;;;;;;14.75;11.50;;;;;-150.52;100.00;63513.88;4955819;28;46287;-79
2021/09/24 12:51:09;;;;;;;;;13.75;11.75;;;;;-150.52;100.00;63513.88;4954854;28;45711;-80
2021/09/24 12:53:38;;;;;;;;;13.75;12.50;;;;;-150.52;100.00;63513.88;4948175;28;45434;-80
2021/09/24 12:56:04;;;;;;;;;11.00;10.25;;;;;-150.52;100.00;63513.88;4962352;28;45467;-80
2021/09/24 12:58:37;;;;;;;;;13.00;9.75;;;;;-150.52;100.00;63513.88;4961877;28;45652;-80
2021/09/24 13:01:06;;;;;;;;;15.75;13.75;;;;;-150.52;100.00;63513.88;4962598;28;45427;-81
2021/09/24 13:03:34;;;;;;;;;10.75;10.00;;;;;-150.52;100.00;63513.88;4961788;28;45438;-81
2021/09/24 13:06:00;;;;;;;;;9.50;9.25;;;;;-150.52;100.00;63513.88;4963106;28;45413;-81
2021/09/24 13:08:27;;;;;;;;;13.50;10.75;;;;;-150.52;100.00;63513.88;4961960;28;45475;-81
2021/09/24 13:10:53;;;;;;;;;11.00;11.00;;;;;-150.52;100.00;63513.88;4951581;28;45362;-81
2021/09/24 13:13:19;;;;;;;;;18.00;13.75;;;;;-150.52;100.00;63513.88;4956713;28;45363;-81
2021/09/24 13:15:45;;;;;;;;;14.75;14.25;;;;;-150.52;100.00;63513.88;4961748;28;45254;-81
2021/09/24 13:18:12;;;;;;;;;15.50;12.50;;;;;-150.52;100.00;63513.88;4961662;28;46463;-81
2021/09/24 13:20:38;;;;;;;;;16.00;14.75;;;;;-150.52;100.00;63513.88;4962554;28;45568;-81
2021/09/24 13:23:03;;;;;;;;;11.25;9.25;;;;;-150.52;100.00;63513.88;4955157;28;45429;-81
2021/09/24 13:25:29;;;;;;;;;16.25;13.00;;;;;-150.52;100.00;63513.88;4956232;28;45436;-81
2021/09/24 13:27:54;;;;;;;;;16.00;13.00;;;;;-150.52;100.00;63513.88;4962333;28;45316;-81
2021/09/24 13:30:19;;;;;;;;;11.50;10.50;;;;;-150.52;100.00;63513.88;4959976;28;45415;-80
2021/09/24 13:32:45;;;;;;;;;15.00;13.75;;;;;-150.52;100.00;63513.88;4958257;28;45330;-80
2021/09/24 13:35:11;;;;;;;;;17.00;13.00;;;;;-150.52;100.00;63513.88;4962555;28;45576;-80
2021/09/24 13:37:37;;;;;;;;;17.00;15.00;;;;;-150.52;100.00;63513.88;4961717;28;45529;-80
2021/09/24 13:40:06;;;;;;;;;11.25;11.25;;;;;-150.52;100.00;63513.88;4944674;28;45712;-81
2021/09/24 13:42:32;;;;;;;;;16.00;11.50;;;;;-150.52;100.00;63513.88;4962116;28;45432;-81
2021/09/24 13:44:57;;;;;;;;;11.75;11.75;;;;;-150.52;100.00;63513.88;4961515;28;45625;-81
2021/09/24 13:47:23;;;;;;;;;15.00;14.00;;;;;-150.52;100.00;63513.88;4961567;28;46777;-81
2021/09/24 13:49:49;;;;;;;;;15.50;13.50;;;;;-150.52;100.00;63513.88;4960083;28;45274;-81
2021/09/24 13:52:14;;;;;;;;;13.25;13.25;;;;;-150.52;100.00;63513.88;4961761;28;45413;-81
2021/09/24 13:54:39;;;;;;;;;10.75;8.50;;;;;-150.52;100.00;63513.88;4961657;28;45553;-81
2021/09/24 13:57:05;;;;;;;;;12.50;10.75;;;;;-150.52;100.00;63513.88;4961487;28;47432;-81
2021/09/24 13:59:30;;;;;;;;;11.50;10.00;;;;;-150.52;100.00;63513.88;4941469;28;45871;-81
2021/09/24 14:01:55;;;;;;;;;12.00;12.00;;;;;-150.52;100.00;63513.88;4951806;28;45565;-81
2021/09/24 14:04:21;;;;;;;;;8.25;7.50;;;;;-150.52;100.00;63513.88;4943522;28;46959;-81
2021/09/24 14:06:46;;;;;;;;;9.75;9.75;;;;;-150.52;100.00;63513.88;4961937;28;46305;-81
2021/09/24 14:09:12;;;;;;;;;11.50;10.25;;;;;-150.52;100.00;63513.88;4961065;28;45767;-81
2021/09/24 14:11:39;;;;;;;;;14.75;12.75;;;;;-150.52;100.00;63513.88;4961512;28;45387;-81
2021/09/24 14:14:06;;;;;;;;;11.25;10.50;;;;;-150.52;100.00;63513.88;4939946;28;45955;-81
2021/09/24 14:16:31;;;;;;;;;11.50;10.50;;;;;-150.52;100.00;63513.88;4957105;28;48188;-81
2021/09/24 14:18:57;;;;;;;;;17.50;14.75;;;;;-150.52;100.00;63513.88;4961080;28;45366;-81
2021/09/24 14:21:22;;;;;;;;;12.75;12.75;;;;;-150.52;100.00;63513.88;4960597;28;45343;-81
2021/09/24 14:23:47;;;;;;;;;10.00;8.50;;;;;-150.52;100.00;63513.88;4960407;28;45369;-81
2021/09/24 14:26:13;;;;;;;;;12.75;11.25;;;;;-150.52;100.00;63513.88;4959791;28;46951;-81
2021/09/24 14:28:38;;;;;;;;;16.00;14.50;;;;;-150.52;100.00;63513.88;4961500;28;45388;-81
2021/09/24 14:31:04;;;;;;;;;16.00;12.25;;;;;-150.52;100.00;63513.88;4956371;28;46363;-81
2021/09/24 14:33:29;;;;;;;;;13.25;11.50;;;;;-150.52;100.00;63513.88;4941840;28;47174;-81
2021/09/24 14:35:55;;;;;;;;;12.25;11.50;;;;;-150.52;100.00;63513.88;4943366;28;46898;-81
2021/09/24 14:38:20;;;;;;;;;14.50;11.75;;;;;-150.52;100.00;63513.88;4958850;28;45469;-81
2021/09/24 14:40:46;;;;;;;;;14.75;14.75;;;;;-150.52;100.00;63513.88;4943711;28;45308;-81
2021/09/24 14:43:12;;;;;;;;;12.00;10.50;;;;;-150.52;100.00;63513.88;4944065;28;46224;-81
2021/09/24 14:45:37;;;;;;;;;12.50;10.25;;;;;-150.52;100.00;63513.88;4959456;28;47095;-81
2021/09/24 14:48:03;;;;;;;;;12.50;10.50;;;;;-150.52;100.00;63513.88;4960698;28;45296;-82
2021/09/24 14:50:29;;;;;;;;;12.00;11.00;;;;;-150.52;100.00;63513.88;4940606;28;45473;-82
2021/09/24 14:52:54;;;;;;;;;14.50;12.25;;;;;-150.52;100.00;63513.88;4955595;28;45400;-82
2021/09/24 14:55:20;;;;;;;;;13.25;13.25;;;;;-150.52;100.00;63513.88;4961003;28;45401;-81
2021/09/24 14:57:46;;;;;;;;;12.75;11.75;;;;;-150.52;100.00;63513.88;4961190;28;45460;-81
2021/09/24 15:00:12;;;;;;;;;12.00;12.00;;;;;-150.52;100.00;63513.88;4959187;28;45403;-81
2021/09/24 15:02:37;;;;;;;;;16.00;15.75;;;;;-150.52;100.00;63513.88;4943156;28;46131;-81
2021/09/24 15:05:04;;;;;;;;;15.25;12.25;;;;;-150.52;100.00;63513.88;4943580;28;47278;-81
2021/09/24 15:07:29;;;;;;;;;12.50;10.25;;;;;-150.52;100.00;63513.88;4960718;28;45884;-81
2021/09/24 15:09:55;;;;;;;;;16.25;13.50;;;;;-150.52;100.00;63513.88;4959623;28;45370;-81
2021/09/24 15:12:21;;;;;;;;;11.75;11.75;;;;;-150.52;100.00;63513.88;4960478;28;45563;-81
2021/09/24 15:14:46;;;;;;;;;13.25;13.00;;;;;-150.52;100.00;63513.88;4959750;28;45300;-82
2021/09/24 15:17:12;;;;;;;;;14.25;10.00;;;;;-150.52;100.00;63513.88;4942641;28;45815;-82
2021/09/24 15:19:38;;;;;;;;;17.25;15.75;;;;;-150.52;100.00;63513.88;4960697;28;45382;-81
2021/09/24 15:22:03;;;;;;;;;12.75;11.25;;;;;-150.52;100.00;63513.88;4958935;28;47166;-81
2021/09/24 15:24:29;;;;;;;;;12.50;12.50;;;;;-150.52;100.00;63513.88;4960315;28;46202;-82
2021/09/24 15:26:55;;;;;;;;;13.50;12.25;;;;;-150.52;100.00;63513.88;4960610;28;45314;-82
2021/09/24 15:29:20;;;;;;;;;14.00;11.75;;;;;-150.52;100.00;63513.88;4941704;28;45518;-82
2021/09/24 15:31:46;;;;;;;;;11.50;9.00;;;;;-150.52;100.00;63513.88;4958917;28;46989;-81
2021/09/24 15:34:12;;;;;;;;;12.25;11.50;;;;;-150.52;100.00;63513.88;4942943;28;47955;-82
2021/09/24 15:36:38;;;;;;;;;14.75;13.00;;;;;-150.52;100.00;63513.88;4960247;28;45477;-82
2021/09/24 15:39:04;;;;;;;;;8.50;5.75;;;;;-150.52;100.00;63513.88;4959975;28;45431;-81
2021/09/24 15:41:30;;;;;;;;;13.00;11.50;;;;;-150.52;100.00;63513.88;4959682;28;45444;-82
2021/09/24 15:43:56;;;;;;;;;12.25;11.25;;;;;-150.52;100.00;63513.88;4939148;28;47502;-82
2021/09/24 15:46:23;;;;;;;;;11.50;10.25;;;;;-150.52;100.00;63513.88;4956958;28;45219;-82
2021/09/24 15:48:49;;;;;;;;;16.50;14.50;;;;;-150.52;100.00;63513.88;4959806;28;45449;-81
2021/09/24 15:51:14;;;;;;;;;15.00;15.00;;;;;-150.52;100.00;63513.88;4959316;28;45221;-82
2021/09/24 15:53:40;;;;;;;;;14.25;12.75;;;;;-150.52;100.00;63513.88;4942669;28;48291;-82
2021/09/24 15:56:05;;;;;;;;;12.50;11.75;;;;;-150.52;100.00;63513.88;4961248;28;45649;-82
2021/09/24 15:58:31;;;;;;;;;13.00;11.25;;;;;-150.52;100.00;63513.88;4958903;28;45451;-81
2021/09/24 16:00:57;;;;;;;;;12.75;10.00;;;;;-150.52;100.00;63513.88;4959661;28;45440;-82
2021/09/24 16:03:22;;;;;;;;;13.25;11.00;;;;;-150.52;100.00;63513.88;4941784;28;46049;-82
2021/09/24 16:05:47;;;;;;;;;14.00;14.00;;;;;-150.52;100.00;63513.88;4958028;28;45513;-82
2021/09/24 16:08:13;;;;;;;;;11.50;10.00;;;;;-150.52;100.00;63513.88;4960274;28;45243;-82
2021/09/24 16:10:38;;;;;;;;;14.25;12.50;;;;;-150.52;100.00;63513.88;4960184;28;45470;-82
2021/09/24 16:13:04;;;;;;;;;13.25;12.00;;;;;-150.52;100.00;63513.88;4960592;28;45519;-82
2021/09/24 16:15:30;;;;;;;;;9.25;9.25;;;;;-150.52;100.00;63513.88;4959644;28;45634;-82
2021/09/24 16:17:56;;;;;;;;;12.50;11.50;;;;;-150.52;100.00;63513.88;4959277;28;45471;-84
2021/09/24 16:20:21;;;;;;;;;12.25;11.00;;;;;-150.52;100.00;63513.88;4942169;28;47162;-84
2021/09/24 16:22:46;;;;;;;;;15.00;14.50;;;;;-150.52;100.00;63513.88;4962265;28;45447;-84
2021/09/24 16:25:13;;;;;;;;;12.25;11.00;;;;;-150.52;100.00;63513.88;4962195;28;45784;-84
2021/09/24 16:27:39;;;;;;;;;13.25;11.75;;;;;-150.52;100.00;63513.88;4962849;28;45366;-84
2021/09/24 16:30:05;;;;;;;;;15.75;13.00;;;;;-150.52;100.00;63513.88;4963274;28;45655;-84
2021/09/24 16:32:31;;;;;;;;;14.25;12.75;;;;;-150.52;100.00;63513.88;4963160;28;47769;-84
2021/09/24 16:34:56;;;;;;;;;14.25;13.25;;;;;-150.52;100.00;63513.88;4962397;28;45520;-84
2021/09/24 16:37:21;;;;;;;;;12.75;8.00;;;;;-150.52;100.00;63513.88;4963062;28;45437;-84
2021/09/24 16:39:47;;;;;;;;;16.00;15.50;;;;;-150.52;100.00;63513.88;4961916;28;46238;-83
2021/09/24 16:42:12;;;;;;;;;11.75;11.50;;;;;-150.52;100.00;63513.88;4963166;28;45481;-84
2021/09/24 16:44:37;;;;;;;;;16.50;15.00;;;;;-150.52;100.00;63513.88;4961483;28;45333;-84
2021/09/24 16:47:03;;;;;;;;;14.75;13.75;;;;;-150.52;100.00;63513.88;4965813;28;45752;-81
2021/09/24 16:49:28;;;;;;;;;12.00;12.00;;;;;-150.52;100.00;63513.88;4965820;28;45409;-81
2021/09/24 16:51:54;;;;;;;;;16.00;15.25;;;;;-150.52;100.00;63513.88;4951173;28;47394;-83
2021/09/24 16:54:19;;;;;;;;;19.25;18.00;;;;;-150.52;100.00;63513.88;4945138;28;45465;-82